sensor_id;sensor_type;location;lat;lon;timestamp;pressure;altitude;pressure_sealevel;temperature;humidity
68075;BME280;54864;52.002;5.468;2023-11-21T00:00:30;100909.72;;;9.07;84.11
68075;BME280;54864;52.002;5.468;2023-11-21T00:01:52;100908.81;;;9.08;84.51
68075;BME280;54864;52.002;5.468;2023-11-21T00:03:13;100914.03;;;9.09;84.53
68075;BME280;54864;52.002;5.468;2023-11-21T00:04:36;100907.97;;;9.07;84.58
68075;BME280;54864;52.002;5.468;2023-11-21T00:05:58;100906.31;;;9.05;84.55
68075;BME280;54864;52.002;5.468;2023-11-21T00:07:21;100910.66;;;9.06;84.80
68075;BME280;54864;52.002;5.468;2023-11-21T00:08:42;100905.44;;;9.04;84.75
68075;BME280;54864;52.002;5.468;2023-11-21T00:10:05;100912.66;;;8.99;84.86
68075;BME280;54864;52.002;5.468;2023-11-21T00:11:27;100916.25;;;8.97;85.55
68075;BME280;54864;52.002;5.468;2023-11-21T00:12:49;100913.50;;;9.00;85.46
68075;BME280;54864;52.002;5.468;2023-11-21T00:14:12;100913.34;;;9.04;85.44
68075;BME280;54864;52.002;5.468;2023-11-21T00:15:35;100916.09;;;9.01;86.21
68075;BME280;54864;52.002;5.468;2023-11-21T00:16:56;100913.44;;;9.01;85.84
68075;BME280;54864;52.002;5.468;2023-11-21T00:18:18;100909.69;;;9.08;85.56
68075;BME280;54864;52.002;5.468;2023-11-21T00:19:40;100914.88;;;9.10;86.21
68075;BME280;54864;52.002;5.468;2023-11-21T00:21:03;100919.25;;;9.11;85.71
68075;BME280;54864;52.002;5.468;2023-11-21T00:22:24;100924.34;;;9.15;85.92
68075;BME280;54864;52.002;5.468;2023-11-21T00:23:46;100919.25;;;9.11;86.28
68075;BME280;54864;52.002;5.468;2023-11-21T00:25:08;100915.59;;;9.15;86.69
68075;BME280;54864;52.002;5.468;2023-11-21T00:26:30;100919.81;;;9.19;86.76
68075;BME280;54864;52.002;5.468;2023-11-21T00:27:57;100922.44;;;9.19;86.53
68075;BME280;54864;52.002;5.468;2023-11-21T00:29:20;100919.75;;;9.20;86.57
68075;BME280;54864;52.002;5.468;2023-11-21T00:30:41;100919.75;;;9.20;86.63
68075;BME280;54864;52.002;5.468;2023-11-21T00:32:04;100920.56;;;9.23;86.82
68075;BME280;54864;52.002;5.468;2023-11-21T00:33:26;100925.81;;;9.23;86.71
68075;BME280;54864;52.002;5.468;2023-11-21T00:34:48;100926.69;;;9.23;86.86
68075;BME280;54864;52.002;5.468;2023-11-21T00:36:09;100916.16;;;9.23;87.20
68075;BME280;54864;52.002;5.468;2023-11-21T00:37:32;100912.59;;;9.24;86.85
68075;BME280;54864;52.002;5.468;2023-11-21T00:38:53;100922.09;;;9.28;87.37
68075;BME280;54864;52.002;5.468;2023-11-21T00:40:16;100914.16;;;9.30;86.61
68075;BME280;54864;52.002;5.468;2023-11-21T00:41:40;100921.06;;;9.32;86.69
68075;BME280;54864;52.002;5.468;2023-11-21T00:43:02;100922.72;;;9.35;86.96
68075;BME280;54864;52.002;5.468;2023-11-21T00:44:25;100919.22;;;9.34;87.14
68075;BME280;54864;52.002;5.468;2023-11-21T00:45:47;100928.09;;;9.32;87.16
68075;BME280;54864;52.002;5.468;2023-11-21T00:47:09;100925.28;;;9.36;86.80
68075;BME280;54864;52.002;5.468;2023-11-21T00:48:31;100926.22;;;9.35;86.92
68075;BME280;54864;52.002;5.468;2023-11-21T00:49:52;100932.31;;;9.36;87.28
68075;BME280;54864;52.002;5.468;2023-11-21T00:51:14;100939.31;;;9.37;87.09
68075;BME280;54864;52.002;5.468;2023-11-21T00:52:36;100927.06;;;9.36;87.01
68075;BME280;54864;52.002;5.468;2023-11-21T00:53:58;100927.88;;;9.38;87.47
68075;BME280;54864;52.002;5.468;2023-11-21T00:55:19;100929.50;;;9.40;86.95
68075;BME280;54864;52.002;5.468;2023-11-21T00:56:41;100941.69;;;9.43;87.11
68075;BME280;54864;52.002;5.468;2023-11-21T00:58:02;100942.50;;;9.45;87.25
68075;BME280;54864;52.002;5.468;2023-11-21T00:59:26;100947.63;;;9.48;86.95
68075;BME280;54864;52.002;5.468;2023-11-21T01:00:47;100945.91;;;9.47;86.87
68075;BME280;54864;52.002;5.468;2023-11-21T01:02:09;100942.31;;;9.49;87.02
68075;BME280;54864;52.002;5.468;2023-11-21T01:03:31;100951.88;;;9.52;86.83
68075;BME280;54864;52.002;5.468;2023-11-21T01:04:53;100943.97;;;9.52;87.65
68075;BME280;54864;52.002;5.468;2023-11-21T01:06:14;100958.03;;;9.51;87.40
68075;BME280;54864;52.002;5.468;2023-11-21T01:07:36;100958.72;;;9.56;87.43
68075;BME280;54864;52.002;5.468;2023-11-21T01:08:57;100955.06;;;9.60;87.19
68075;BME280;54864;52.002;5.468;2023-11-21T01:10:19;100954.31;;;9.57;87.55
68075;BME280;54864;52.002;5.468;2023-11-21T01:11:41;100956.94;;;9.57;87.27
68075;BME280;54864;52.002;5.468;2023-11-21T01:13:03;100958.59;;;9.59;87.51
68075;BME280;54864;52.002;5.468;2023-11-21T01:14:27;100967.41;;;9.58;88.13
68075;BME280;54864;52.002;5.468;2023-11-21T01:15:49;100963.88;;;9.59;87.87
68075;BME280;54864;52.002;5.468;2023-11-21T01:17:10;100969.88;;;9.63;87.55
68075;BME280;54864;52.002;5.468;2023-11-21T01:18:33;100968.22;;;9.60;87.59
68075;BME280;54864;52.002;5.468;2023-11-21T01:19:54;100966.69;;;9.54;88.00
68075;BME280;54864;52.002;5.468;2023-11-21T01:21:17;100970.84;;;9.60;87.74
68075;BME280;54864;52.002;5.468;2023-11-21T01:22:38;100967.25;;;9.63;87.86
68075;BME280;54864;52.002;5.468;2023-11-21T01:24:00;100968.09;;;9.63;87.12
68075;BME280;54864;52.002;5.468;2023-11-21T01:25:21;100968.03;;;9.65;86.93
68075;BME280;54864;52.002;5.468;2023-11-21T01:26:44;100966.31;;;9.64;87.43
68075;BME280;54864;52.002;5.468;2023-11-21T01:28:07;100971.81;;;9.58;87.22
68075;BME280;54864;52.002;5.468;2023-11-21T01:29:30;100963.81;;;9.61;86.94
68075;BME280;54864;52.002;5.468;2023-11-21T01:30:51;100965.47;;;9.63;86.86
68075;BME280;54864;52.002;5.468;2023-11-21T01:32:17;100967.19;;;9.64;86.73
68075;BME280;54864;52.002;5.468;2023-11-21T01:33:38;100971.59;;;9.64;87.04
68075;BME280;54864;52.002;5.468;2023-11-21T01:35:00;100962.94;;;9.60;86.63
68075;BME280;54864;52.002;5.468;2023-11-21T01:36:21;100963.94;;;9.58;86.93
68075;BME280;54864;52.002;5.468;2023-11-21T01:37:43;100959.47;;;9.60;86.48
68075;BME280;54864;52.002;5.468;2023-11-21T01:39:04;100967.53;;;9.55;86.69
68075;BME280;54864;52.002;5.468;2023-11-21T01:40:29;100967.28;;;9.61;86.68
68075;BME280;54864;52.002;5.468;2023-11-21T01:41:51;100968.34;;;9.57;86.71
68075;BME280;54864;52.002;5.468;2023-11-21T01:43:13;100966.63;;;9.56;86.43
68075;BME280;54864;52.002;5.468;2023-11-21T01:44:36;100964.06;;;9.54;86.47
68075;BME280;54864;52.002;5.468;2023-11-21T01:45:58;100970.16;;;9.55;86.00
68075;BME280;54864;52.002;5.468;2023-11-21T01:47:19;100972.88;;;9.53;86.58
68075;BME280;54864;52.002;5.468;2023-11-21T01:48:42;100979.03;;;9.52;86.11
68075;BME280;54864;52.002;5.468;2023-11-21T01:50:03;100977.50;;;9.47;85.84
68075;BME280;54864;52.002;5.468;2023-11-21T01:51:28;100976.75;;;9.43;86.02
68075;BME280;54864;52.002;5.468;2023-11-21T01:52:49;100981.91;;;9.46;86.21
68075;BME280;54864;52.002;5.468;2023-11-21T01:54:12;100978.34;;;9.47;86.47
68075;BME280;54864;52.002;5.468;2023-11-21T01:55:33;100985.34;;;9.48;86.13
68075;BME280;54864;52.002;5.468;2023-11-21T01:56:56;100985.47;;;9.45;86.11
68075;BME280;54864;52.002;5.468;2023-11-21T01:58:19;100991.53;;;9.47;86.45
68075;BME280;54864;52.002;5.468;2023-11-21T01:59:44;100980.94;;;9.49;86.25
68075;BME280;54864;52.002;5.468;2023-11-21T02:01:05;100982.81;;;9.45;86.46
68075;BME280;54864;52.002;5.468;2023-11-21T02:02:27;100989.91;;;9.43;86.53
68075;BME280;54864;52.002;5.468;2023-11-21T02:03:49;100992.50;;;9.45;86.76
68075;BME280;54864;52.002;5.468;2023-11-21T02:05:11;100989.81;;;9.46;87.35
68075;BME280;54864;52.002;5.468;2023-11-21T02:06:33;100993.22;;;9.48;87.68
68075;BME280;54864;52.002;5.468;2023-11-21T02:07:55;100993.22;;;9.48;87.38
68075;BME280;54864;52.002;5.468;2023-11-21T02:09:17;100985.47;;;9.45;87.28
68075;BME280;54864;52.002;5.468;2023-11-21T02:10:44;100992.56;;;9.43;87.68
68075;BME280;54864;52.002;5.468;2023-11-21T02:12:06;100991.63;;;9.44;87.83
68075;BME280;54864;52.002;5.468;2023-11-21T02:13:29;100998.56;;;9.47;87.84
68075;BME280;54864;52.002;5.468;2023-11-21T02:14:52;101001.94;;;9.50;87.55
68075;BME280;54864;52.002;5.468;2023-11-21T02:16:14;101001.00;;;9.51;87.53
68075;BME280;54864;52.002;5.468;2023-11-21T02:17:35;101002.91;;;9.48;87.89
68075;BME280;54864;52.002;5.468;2023-11-21T02:18:57;101010.22;;;9.40;88.04
68075;BME280;54864;52.002;5.468;2023-11-21T02:20:20;101012.56;;;9.47;87.95
68075;BME280;54864;52.002;5.468;2023-11-21T02:21:45;101017.72;;;9.50;87.93
68075;BME280;54864;52.002;5.468;2023-11-21T02:23:07;101017.94;;;9.44;87.98
68075;BME280;54864;52.002;5.468;2023-11-21T02:24:29;101010.34;;;9.37;87.84
68075;BME280;54864;52.002;5.468;2023-11-21T02:25:50;101015.50;;;9.40;88.35
68075;BME280;54864;52.002;5.468;2023-11-21T02:27:14;101017.78;;;9.26;89.25
68075;BME280;54864;52.002;5.468;2023-11-21T02:28:41;101014.69;;;9.38;88.57
68075;BME280;54864;52.002;5.468;2023-11-21T02:30:03;101018.00;;;9.43;88.70
68075;BME280;54864;52.002;5.468;2023-11-21T02:31:25;101019.56;;;9.48;88.67
68075;BME280;54864;52.002;5.468;2023-11-21T02:32:48;101023.84;;;9.51;88.95
68075;BME280;54864;52.002;5.468;2023-11-21T02:34:09;101021.16;;;9.52;88.79
68075;BME280;54864;52.002;5.468;2023-11-21T02:35:32;101020.97;;;9.57;88.44
68075;BME280;54864;52.002;5.468;2023-11-21T02:36:53;101021.72;;;9.61;88.82
68075;BME280;54864;52.002;5.468;2023-11-21T02:38:17;101020.75;;;9.63;88.24
68075;BME280;54864;52.002;5.468;2023-11-21T02:39:38;101020.97;;;9.57;88.72
68075;BME280;54864;52.002;5.468;2023-11-21T02:41:00;101022.69;;;9.58;88.53
68075;BME280;54864;52.002;5.468;2023-11-21T02:42:21;101019.09;;;9.61;88.46
68075;BME280;54864;52.002;5.468;2023-11-21T02:43:43;101021.47;;;9.67;88.46
68075;BME280;54864;52.002;5.468;2023-11-21T02:45:06;101015.25;;;9.69;88.76
68075;BME280;54864;52.002;5.468;2023-11-21T02:46:28;101024.84;;;9.70;88.58
68075;BME280;54864;52.002;5.468;2023-11-21T02:47:49;101017.69;;;9.74;88.72
68075;BME280;54864;52.002;5.468;2023-11-21T02:49:13;101021.91;;;9.79;88.62
68075;BME280;54864;52.002;5.468;2023-11-21T02:50:34;101023.66;;;9.79;88.24
68075;BME280;54864;52.002;5.468;2023-11-21T02:51:58;101029.78;;;9.79;88.02
68075;BME280;54864;52.002;5.468;2023-11-21T02:53:20;101025.28;;;9.83;88.45
68075;BME280;54864;52.002;5.468;2023-11-21T02:54:42;101029.44;;;9.89;88.34
68075;BME280;54864;52.002;5.468;2023-11-21T02:56:03;101024.09;;;9.90;88.17
68075;BME280;54864;52.002;5.468;2023-11-21T02:57:26;101024.22;;;9.87;88.71
68075;BME280;54864;52.002;5.468;2023-11-21T02:58:47;101025.94;;;9.88;88.38
68075;BME280;54864;52.002;5.468;2023-11-21T03:00:10;101022.16;;;9.95;88.05
68075;BME280;54864;52.002;5.468;2023-11-21T03:01:33;101020.44;;;9.94;87.97
68075;BME280;54864;52.002;5.468;2023-11-21T03:02:56;101017.00;;;9.92;88.41
68075;BME280;54864;52.002;5.468;2023-11-21T03:04:17;101021.16;;;9.98;88.57
68075;BME280;54864;52.002;5.468;2023-11-21T03:05:40;101020.13;;;10.02;88.19
68075;BME280;54864;52.002;5.468;2023-11-21T03:07:01;101016.69;;;10.00;88.32
68075;BME280;54864;52.002;5.468;2023-11-21T03:08:24;101027.19;;;10.01;88.02
68075;BME280;54864;52.002;5.468;2023-11-21T03:09:45;101018.28;;;10.04;88.10
68075;BME280;54864;52.002;5.468;2023-11-21T03:11:07;101026.00;;;10.08;87.71
68075;BME280;54864;52.002;5.468;2023-11-21T03:12:29;101020.69;;;10.10;87.53
68075;BME280;54864;52.002;5.468;2023-11-21T03:13:51;101026.75;;;10.12;87.34
68075;BME280;54864;52.002;5.468;2023-11-21T03:15:12;101022.69;;;10.03;87.66
68075;BME280;54864;52.002;5.468;2023-11-21T03:16:34;101018.03;;;10.10;87.21
68075;BME280;54864;52.002;5.468;2023-11-21T03:17:55;101018.03;;;10.10;87.81
68075;BME280;54864;52.002;5.468;2023-11-21T03:19:17;101018.84;;;10.12;87.41
68075;BME280;54864;52.002;5.468;2023-11-21T03:20:38;101021.34;;;10.15;87.30
68075;BME280;54864;52.002;5.468;2023-11-21T03:22:00;101023.13;;;10.14;87.30
68075;BME280;54864;52.002;5.468;2023-11-21T03:23:21;101018.66;;;10.16;87.22
68075;BME280;54864;52.002;5.468;2023-11-21T03:24:45;101026.44;;;10.20;86.76
68075;BME280;54864;52.002;5.468;2023-11-21T03:26:06;101025.53;;;10.21;86.82
68075;BME280;54864;52.002;5.468;2023-11-21T03:27:33;101028.13;;;10.22;87.09
68075;BME280;54864;52.002;5.468;2023-11-21T03:28:54;101028.19;;;10.21;87.17
68075;BME280;54864;52.002;5.468;2023-11-21T03:30:16;101034.19;;;10.24;87.17
68075;BME280;54864;52.002;5.468;2023-11-21T03:31:37;101032.53;;;10.22;87.11
68075;BME280;54864;52.002;5.468;2023-11-21T03:32:59;101028.97;;;10.23;87.26
68075;BME280;54864;52.002;5.468;2023-11-21T03:34:24;101028.78;;;10.27;87.24
68075;BME280;54864;52.002;5.468;2023-11-21T03:35:46;101036.88;;;10.23;86.57
68075;BME280;54864;52.002;5.468;2023-11-21T03:37:08;101041.28;;;10.22;87.61
68075;BME280;54864;52.002;5.468;2023-11-21T03:38:29;101037.69;;;10.25;87.54
68075;BME280;54864;52.002;5.468;2023-11-21T03:39:52;101036.94;;;10.21;87.81
68075;BME280;54864;52.002;5.468;2023-11-21T03:41:14;101035.91;;;10.25;87.52
68075;BME280;54864;52.002;5.468;2023-11-21T03:42:35;101040.06;;;10.31;87.48
68075;BME280;54864;52.002;5.468;2023-11-21T03:43:57;101045.47;;;10.28;87.50
68075;BME280;54864;52.002;5.468;2023-11-21T03:45:18;101039.19;;;10.30;87.47
68075;BME280;54864;52.002;5.468;2023-11-21T03:46:41;101037.44;;;10.31;87.52
68075;BME280;54864;52.002;5.468;2023-11-21T03:48:02;101038.94;;;10.36;87.40
68075;BME280;54864;52.002;5.468;2023-11-21T03:49:24;101047.72;;;10.37;87.42
68075;BME280;54864;52.002;5.468;2023-11-21T03:50:45;101041.53;;;10.38;87.18
68075;BME280;54864;52.002;5.468;2023-11-21T03:52:08;101044.97;;;10.40;87.21
68075;BME280;54864;52.002;5.468;2023-11-21T03:53:29;101047.56;;;10.41;87.09
68075;BME280;54864;52.002;5.468;2023-11-21T03:54:53;101051.91;;;10.42;87.22
68075;BME280;54864;52.002;5.468;2023-11-21T03:56:14;101053.69;;;10.42;87.32
68075;BME280;54864;52.002;5.468;2023-11-21T03:57:36;101053.63;;;10.43;87.23
68075;BME280;54864;52.002;5.468;2023-11-21T03:58:57;101056.25;;;10.43;86.91
68075;BME280;54864;52.002;5.468;2023-11-21T04:00:20;101050.94;;;10.45;86.90
68075;BME280;54864;52.002;5.468;2023-11-21T04:01:41;101059.63;;;10.47;86.83
68075;BME280;54864;52.002;5.468;2023-11-21T04:03:03;101053.38;;;10.50;86.82
68075;BME280;54864;52.002;5.468;2023-11-21T04:04:25;101056.94;;;10.48;86.80
68075;BME280;54864;52.002;5.468;2023-11-21T04:05:47;101051.53;;;10.52;86.76
68075;BME280;54864;52.002;5.468;2023-11-21T04:07:08;101046.25;;;10.52;86.78
68075;BME280;54864;52.002;5.468;2023-11-21T04:08:31;101052.25;;;10.55;86.87
68075;BME280;54864;52.002;5.468;2023-11-21T04:09:55;101059.25;;;10.56;87.03
68075;BME280;54864;52.002;5.468;2023-11-21T04:11:17;101051.22;;;10.59;86.77
68075;BME280;54864;52.002;5.468;2023-11-21T04:12:38;101060.03;;;10.58;86.51
68075;BME280;54864;52.002;5.468;2023-11-21T04:14:01;101063.59;;;10.57;86.84
68075;BME280;54864;52.002;5.468;2023-11-21T04:15:22;101055.88;;;10.53;86.86
68075;BME280;54864;52.002;5.468;2023-11-21T04:16:44;101056.69;;;10.55;86.69
68075;BME280;54864;52.002;5.468;2023-11-21T04:18:05;101064.47;;;10.58;86.60
68075;BME280;54864;52.002;5.468;2023-11-21T04:19:27;101066.09;;;10.60;86.50
68075;BME280;54864;52.002;5.468;2023-11-21T04:20:48;101067.81;;;10.61;86.47
68075;BME280;54864;52.002;5.468;2023-11-21T04:22:10;101074.69;;;10.65;86.55
68075;BME280;54864;52.002;5.468;2023-11-21T04:23:31;101081.81;;;10.63;86.51
68075;BME280;54864;52.002;5.468;2023-11-21T04:24:54;101076.59;;;10.62;86.56
68075;BME280;54864;52.002;5.468;2023-11-21T04:26:18;101081.88;;;10.62;86.49
68075;BME280;54864;52.002;5.468;2023-11-21T04:27:40;101068.94;;;10.56;86.18
68075;BME280;54864;52.002;5.468;2023-11-21T04:29:04;101082.00;;;10.59;85.87
68075;BME280;54864;52.002;5.468;2023-11-21T04:30:26;101081.88;;;10.62;86.18
68075;BME280;54864;52.002;5.468;2023-11-21T04:31:47;101093.34;;;10.61;86.47
68075;BME280;54864;52.002;5.468;2023-11-21T04:33:09;101096.69;;;10.64;86.45
68075;BME280;54864;52.002;5.468;2023-11-21T04:34:31;101095.84;;;10.64;86.26
68075;BME280;54864;52.002;5.468;2023-11-21T04:35:53;101095.13;;;10.60;86.29
68075;BME280;54864;52.002;5.468;2023-11-21T04:37:14;101089.84;;;10.60;86.29
68075;BME280;54864;52.002;5.468;2023-11-21T04:38:36;101096.69;;;10.64;86.22
68075;BME280;54864;52.002;5.468;2023-11-21T04:39:57;101095.84;;;10.64;86.44
68075;BME280;54864;52.002;5.468;2023-11-21T04:41:20;101097.56;;;10.65;86.18
68075;BME280;54864;52.002;5.468;2023-11-21T04:42:42;101101.19;;;10.62;86.39
68075;BME280;54864;52.002;5.468;2023-11-21T04:44:04;101094.84;;;10.66;86.48
68075;BME280;54864;52.002;5.468;2023-11-21T04:45:26;101100.94;;;10.68;86.29
68075;BME280;54864;52.002;5.468;2023-11-21T04:46:48;101103.63;;;10.67;86.51
68075;BME280;54864;52.002;5.468;2023-11-21T04:48:09;101095.66;;;10.68;86.44
68075;BME280;54864;52.002;5.468;2023-11-21T04:49:31;101110.56;;;10.69;86.64
68075;BME280;54864;52.002;5.468;2023-11-21T04:50:52;101118.47;;;10.69;86.77
68075;BME280;54864;52.002;5.468;2023-11-21T04:52:14;101114.97;;;10.69;86.89
68075;BME280;54864;52.002;5.468;2023-11-21T04:53:35;101107.13;;;10.67;87.02
68075;BME280;54864;52.002;5.468;2023-11-21T04:54:57;101113.97;;;10.71;86.89
68075;BME280;54864;52.002;5.468;2023-11-21T04:56:20;101103.44;;;10.71;87.01
68075;BME280;54864;52.002;5.468;2023-11-21T04:57:42;101110.22;;;10.77;87.04
68075;BME280;54864;52.002;5.468;2023-11-21T04:59:03;101111.09;;;10.77;87.28
68075;BME280;54864;52.002;5.468;2023-11-21T05:00:26;101118.94;;;10.79;86.69
68075;BME280;54864;52.002;5.468;2023-11-21T05:01:47;101112.81;;;10.78;86.52
68075;BME280;54864;52.002;5.468;2023-11-21T05:03:09;101114.53;;;10.79;86.25
68075;BME280;54864;52.002;5.468;2023-11-21T05:04:30;101117.16;;;10.79;86.30
68075;BME280;54864;52.002;5.468;2023-11-21T05:05:52;101117.16;;;10.79;86.36
68075;BME280;54864;52.002;5.468;2023-11-21T05:07:13;101120.66;;;10.80;86.60
68075;BME280;54864;52.002;5.468;2023-11-21T05:08:37;101127.66;;;10.81;86.51
68075;BME280;54864;52.002;5.468;2023-11-21T05:09:58;101115.56;;;10.75;86.27
68075;BME280;54864;52.002;5.468;2023-11-21T05:11:25;101128.03;;;10.72;86.41
68075;BME280;54864;52.002;5.468;2023-11-21T05:12:48;101124.47;;;10.73;86.42
68075;BME280;54864;52.002;5.468;2023-11-21T05:14:10;101129.56;;;10.77;86.22
68075;BME280;54864;52.002;5.468;2023-11-21T05:15:32;101131.28;;;10.78;86.40
68075;BME280;54864;52.002;5.468;2023-11-21T05:16:54;101136.41;;;10.82;86.62
68075;BME280;54864;52.002;5.468;2023-11-21T05:18:15;101130.19;;;10.62;86.61
68075;BME280;54864;52.002;5.468;2023-11-21T05:19:38;101134.94;;;10.74;86.84
68075;BME280;54864;52.002;5.468;2023-11-21T05:20:59;101129.63;;;10.54;87.27
68075;BME280;54864;52.002;5.468;2023-11-21T05:22:21;101137.41;;;10.57;88.02
68075;BME280;54864;52.002;5.468;2023-11-21T05:23:42;101137.34;;;10.59;88.49
68075;BME280;54864;52.002;5.468;2023-11-21T05:25:05;101131.72;;;10.68;87.76
68075;BME280;54864;52.002;5.468;2023-11-21T05:26:29;101142.88;;;10.74;87.36
68075;BME280;54864;52.002;5.468;2023-11-21T05:27:51;101143.31;;;10.64;88.08
68075;BME280;54864;52.002;5.468;2023-11-21T05:29:13;101141.22;;;10.72;87.33
68075;BME280;54864;52.002;5.468;2023-11-21T05:30:36;101147.66;;;10.65;88.02
68075;BME280;54864;52.002;5.468;2023-11-21T05:31:57;101143.63;;;10.56;88.78
68075;BME280;54864;52.002;5.468;2023-11-21T05:33:19;101139.00;;;10.61;88.38
68075;BME280;54864;52.002;5.468;2023-11-21T05:34:40;101140.59;;;10.65;88.46
68075;BME280;54864;52.002;5.468;2023-11-21T05:36:03;101143.97;;;10.69;88.19
68075;BME280;54864;52.002;5.468;2023-11-21T05:37:25;101153.41;;;10.74;88.02
68075;BME280;54864;52.002;5.468;2023-11-21T05:38:47;101150.03;;;10.71;88.24
68075;BME280;54864;52.002;5.468;2023-11-21T05:40:10;101163.03;;;10.75;88.18
68075;BME280;54864;52.002;5.468;2023-11-21T05:41:32;101150.66;;;10.77;88.00
68075;BME280;54864;52.002;5.468;2023-11-21T05:42:55;101160.09;;;10.83;88.02
68075;BME280;54864;52.002;5.468;2023-11-21T05:44:16;101160.81;;;10.87;87.86
68075;BME280;54864;52.002;5.468;2023-11-21T05:45:38;101160.47;;;10.74;88.11
68075;BME280;54864;52.002;5.468;2023-11-21T05:46:59;101166.34;;;10.80;88.20
68075;BME280;54864;52.002;5.468;2023-11-21T05:48:21;101159.22;;;10.83;88.24
68075;BME280;54864;52.002;5.468;2023-11-21T05:49:43;101170.50;;;10.86;88.05
68075;BME280;54864;52.002;5.468;2023-11-21T05:51:06;101162.41;;;10.91;87.93
68075;BME280;54864;52.002;5.468;2023-11-21T05:52:27;101167.75;;;10.89;87.76
68075;BME280;54864;52.002;5.468;2023-11-21T05:53:49;101159.28;;;10.81;87.81
68075;BME280;54864;52.002;5.468;2023-11-21T05:55:10;101170.75;;;10.80;88.22
68075;BME280;54864;52.002;5.468;2023-11-21T05:56:35;101170.63;;;10.83;87.56
68075;BME280;54864;52.002;5.468;2023-11-21T05:57:56;101172.47;;;10.81;87.87
68075;BME280;54864;52.002;5.468;2023-11-21T05:59:18;101180.03;;;10.90;87.48
68075;BME280;54864;52.002;5.468;2023-11-21T06:00:41;101177.31;;;10.92;87.50
68075;BME280;54864;52.002;5.468;2023-11-21T06:02:03;101182.47;;;10.95;87.49
68075;BME280;54864;52.002;5.468;2023-11-21T06:03:25;101178.06;;;10.95;87.37
68075;BME280;54864;52.002;5.468;2023-11-21T06:04:48;101185.84;;;10.98;87.45
68075;BME280;54864;52.002;5.468;2023-11-21T06:06:08;101183.03;;;10.81;87.33
68075;BME280;54864;52.002;5.468;2023-11-21T06:07:31;101180.75;;;10.94;87.33
68075;BME280;54864;52.002;5.468;2023-11-21T06:08:52;101187.69;;;10.96;87.35
68075;BME280;54864;52.002;5.468;2023-11-21T06:10:14;101190.25;;;10.98;87.57
68075;BME280;54864;52.002;5.468;2023-11-21T06:11:36;101193.94;;;10.94;87.24
68075;BME280;54864;52.002;5.468;2023-11-21T06:12:58;101182.28;;;10.99;87.16
68075;BME280;54864;52.002;5.468;2023-11-21T06:14:19;101197.13;;;11.02;87.17
68075;BME280;54864;52.002;5.468;2023-11-21T06:15:42;101203.19;;;11.04;87.20
68075;BME280;54864;52.002;5.468;2023-11-21T06:17:03;101197.88;;;11.05;87.09
68075;BME280;54864;52.002;5.468;2023-11-21T06:18:26;101199.59;;;11.06;87.03
68075;BME280;54864;52.002;5.468;2023-11-21T06:19:47;101205.63;;;11.10;87.27
68075;BME280;54864;52.002;5.468;2023-11-21T06:21:09;101212.53;;;11.13;87.05
68075;BME280;54864;52.002;5.468;2023-11-21T06:22:30;101209.84;;;11.14;86.86
68075;BME280;54864;52.002;5.468;2023-11-21T06:23:52;101209.78;;;11.16;86.80
68075;BME280;54864;52.002;5.468;2023-11-21T06:25:14;101207.13;;;11.16;86.64
68075;BME280;54864;52.002;5.468;2023-11-21T06:26:37;101199.16;;;11.17;86.57
68075;BME280;54864;52.002;5.468;2023-11-21T06:27:59;101198.56;;;11.10;86.76
68075;BME280;54864;52.002;5.468;2023-11-21T06:29:21;101207.25;;;11.13;86.46
68075;BME280;54864;52.002;5.468;2023-11-21T06:30:42;101204.63;;;11.13;86.45
68075;BME280;54864;52.002;5.468;2023-11-21T06:32:06;101210.63;;;11.16;86.46
68075;BME280;54864;52.002;5.468;2023-11-21T06:33:27;101211.44;;;11.18;86.30
68075;BME280;54864;52.002;5.468;2023-11-21T06:34:49;101209.66;;;11.19;86.30
68075;BME280;54864;52.002;5.468;2023-11-21T06:36:10;101211.38;;;11.20;86.48
68075;BME280;54864;52.002;5.468;2023-11-21T06:37:33;101217.50;;;11.20;86.33
68075;BME280;54864;52.002;5.468;2023-11-21T06:38:54;101215.72;;;11.21;86.27
68075;BME280;54864;52.002;5.468;2023-11-21T06:40:17;101212.59;;;11.11;86.50
68075;BME280;54864;52.002;5.468;2023-11-21T06:41:40;101220.34;;;11.16;86.31
68075;BME280;54864;52.002;5.468;2023-11-21T06:43:02;101216.56;;;11.21;86.22
68075;BME280;54864;52.002;5.468;2023-11-21T06:44:23;101211.31;;;11.21;86.38
68075;BME280;54864;52.002;5.468;2023-11-21T06:45:45;101222.72;;;11.22;86.52
68075;BME280;54864;52.002;5.468;2023-11-21T06:47:06;101223.69;;;11.19;86.62
68075;BME280;54864;52.002;5.468;2023-11-21T06:48:28;101222.72;;;11.22;86.84
68075;BME280;54864;52.002;5.468;2023-11-21T06:49:51;101220.00;;;11.23;86.83
68075;BME280;54864;52.002;5.468;2023-11-21T06:51:13;101224.31;;;11.26;86.90
68075;BME280;54864;52.002;5.468;2023-11-21T06:52:34;101230.31;;;11.29;87.06
68075;BME280;54864;52.002;5.468;2023-11-21T06:53:56;101226.75;;;11.30;86.83
68075;BME280;54864;52.002;5.468;2023-11-21T06:55:17;101229.59;;;11.26;87.06
68075;BME280;54864;52.002;5.468;2023-11-21T06:56:41;101229.53;;;11.27;87.55
68075;BME280;54864;52.002;5.468;2023-11-21T06:58:02;101237.38;;;11.29;87.36
68075;BME280;54864;52.002;5.468;2023-11-21T06:59:25;101231.09;;;11.31;87.16
68075;BME280;54864;52.002;5.468;2023-11-21T07:00:46;101238.38;;;11.26;87.11
68075;BME280;54864;52.002;5.468;2023-11-21T07:02:10;101231.16;;;11.30;87.34
68075;BME280;54864;52.002;5.468;2023-11-21T07:03:31;101230.31;;;11.29;87.40
68075;BME280;54864;52.002;5.468;2023-11-21T07:04:54;101238.09;;;11.32;87.19
68075;BME280;54864;52.002;5.468;2023-11-21T07:06:15;101238.03;;;11.34;87.13
68075;BME280;54864;52.002;5.468;2023-11-21T07:07:37;101242.41;;;11.35;87.08
68075;BME280;54864;52.002;5.468;2023-11-21T07:08:59;101246.63;;;11.39;86.91
68075;BME280;54864;52.002;5.468;2023-11-21T07:10:21;101243.97;;;11.39;86.74
68075;BME280;54864;52.002;5.468;2023-11-21T07:11:45;101248.28;;;11.41;86.79